Terminal Aerodrome Forecast
Issued by NWS Cleveland, OH

Home | Current Version | Previous Version | Text Only | Print | Product List | Glossary On
Versions: 1 2 3 4 5 6 7 8 9 10 11 12 13 14 15 16 17 18 19 20 21
278
FTUS41 KCLE 181740
TAFTOL
TAF
KTOL 181740Z 1818/1918 14012G18KT 2SM -SHRA VCTS OVC003CB
      WS020/20040KT
      TEMPO 1818/1821 VRB20G35KT 3/4SM -TSRA SCT003CB OVC006
     FM182200 24020G35KT 2SM -SHRA BR OVC005
     FM190500 30020G35KT 6SM -SHRA SCT005 OVC012=

USA.gov is the U.S. government's official web portal to all federal, state and local government web resources and services.